Time;durP1;ratioP1;P1;durP2;ratioP2;P2;SDS_P1;SDS_P2;PMS_P1;PMS_P2;Temp;Humidity;BMP_temperature;BMP_pressure;BME280_temperature;BME280_humidity;BME280_pressure;Samples;Min_cycle;Max_cycle;Signal;HPM_P1;HPM_P2
2022/09/18 00:02:08;;;;;;;8.13;1.80;;;11.50;99.90;;;;;;5089921;28;20036;-63
2022/09/18 00:04:34;;;;;;;9.45;1.73;;;11.40;99.90;;;;;;5088479;28;20040;-63
2022/09/18 00:06:59;;;;;;;7.30;1.92;;;11.40;99.90;;;;;;5100129;28;20035;-64
2022/09/18 00:09:25;;;;;;;7.40;1.48;;;11.40;99.90;;;;;;5107456;28;20038;-65
2022/09/18 00:11:51;;;;;;;7.82;1.77;;;11.40;99.90;;;;;;5089534;28;20515;-63
2022/09/18 00:14:19;;;;;;;11.18;1.58;;;11.40;99.90;;;;;;5083901;28;20032;-63
2022/09/18 00:16:46;;;;;;;11.07;1.95;;;11.40;99.90;;;;;;5085835;28;20047;-63
2022/09/18 00:19:12;;;;;;;10.45;1.73;;;11.40;99.90;;;;;;5084568;28;20039;-66
2022/09/18 00:21:43;;;;;;;7.15;2.00;;;11.40;99.90;;;;;;5090429;28;20040;-64
2022/09/18 00:24:09;;;;;;;8.88;1.70;;;11.40;99.90;;;;;;5089103;28;20067;-63
2022/09/18 00:26:34;;;;;;;6.57;1.70;;;11.40;99.90;;;;;;5075323;28;20124;-63
2022/09/18 00:29:01;;;;;;;12.23;1.80;;;11.40;99.90;;;;;;5083548;28;20506;-63
2022/09/18 00:31:30;;;;;;;8.68;1.77;;;11.40;99.90;;;;;;5095055;28;20068;-63
2022/09/18 00:33:58;;;;;;;11.40;1.80;;;11.40;99.90;;;;;;5088795;28;20055;-65
2022/09/18 00:36:24;;;;;;;9.23;1.45;;;11.40;99.90;;;;;;5092879;28;20028;-64
2022/09/18 00:38:50;;;;;;;10.90;1.55;;;11.50;99.90;;;;;;5087834;28;20115;-63
2022/09/18 00:41:22;;;;;;;11.40;1.60;;;11.40;99.90;;;;;;5055303;28;20040;-63
2022/09/18 00:43:49;;;;;;;8.35;1.58;;;11.40;99.90;;;;;;5090046;28;20383;-65
2022/09/18 00:46:23;;;;;;;6.90;1.65;;;11.40;99.90;;;;;;5073958;28;20039;-63
2022/09/18 00:48:58;;;;;;;9.95;1.65;;;11.40;99.90;;;;;;5058593;28;20040;-64
2022/09/18 00:51:25;;;;;;;6.70;1.65;;;11.40;99.90;;;;;;5101342;28;20054;-64
2022/09/18 00:54:07;;;;;;;12.55;2.25;;;11.40;99.90;;;;;;5070724;28;20043;-65
2022/09/18 00:56:33;;;;;;;9.25;1.80;;;11.40;99.90;;;;;;5076058;28;20085;-65
2022/09/18 00:58:59;;;;;;;10.25;2.33;;;11.40;99.90;;;;;;5093108;28;20139;-63
2022/09/18 01:01:25;;;;;;;6.88;1.75;;;11.40;99.90;;;;;;5088544;28;20032;-64
2022/09/18 01:03:50;;;;;;;8.45;1.67;;;11.50;99.90;;;;;;5090557;28;20522;-63
2022/09/18 01:06:29;;;;;;;6.10;1.38;;;11.50;99.90;;;;;;5090344;28;20279;-63
2022/09/18 01:09:12;;;;;;;14.13;1.60;;;11.50;99.90;;;;;;5089502;28;20071;-64
2022/09/18 01:11:57;;;;;;;9.73;1.73;;;11.50;99.90;;;;;;5083464;28;20054;-64
2022/09/18 01:14:50;;;;;;;9.20;1.55;;;11.50;99.90;;;;;;5080137;28;20044;-63
2022/09/18 01:17:38;;;;;;;7.22;1.48;;;11.50;99.90;;;;;;5095933;28;20505;-63
2022/09/18 01:20:24;;;;;;;7.10;1.30;;;11.50;99.90;;;;;;5083744;28;20035;-64
2022/09/18 01:23:12;;;;;;;7.55;1.35;;;11.50;99.90;;;;;;5093825;28;20040;-64
2022/09/18 01:26:16;;;;;;;8.88;1.77;;;11.50;99.90;;;;;;5095748;28;20069;-63
2022/09/18 01:28:49;;;;;;;8.43;1.65;;;11.50;99.90;;;;;;5087447;28;20033;-65
2022/09/18 01:31:21;;;;;;;10.63;1.70;;;11.50;99.90;;;;;;5071926;28;20037;-63
2022/09/18 01:34:52;;;;;;;4.63;1.27;;;11.50;99.90;;;;;;5094150;28;20415;-63
2022/09/18 01:37:17;;;;;;;6.35;1.30;;;11.50;99.90;;;;;;4999272;28;20203;-63
2022/09/18 01:39:57;;;;;;;3.90;1.10;;;11.50;99.90;;;;;;5081522;28;20486;-63
2022/09/18 01:42:27;;;;;;;9.02;1.70;;;11.60;99.90;;;;;;5092310;28;20040;-63
2022/09/18 01:44:55;;;;;;;7.80;1.58;;;11.60;99.90;;;;;;5101437;28;20451;-63
2022/09/18 01:47:26;;;;;;;8.65;1.40;;;11.60;99.90;;;;;;5075513;28;20040;-64
2022/09/18 01:49:53;;;;;;;5.82;1.50;;;11.60;99.90;;;;;;5074209;28;20396;-65
2022/09/18 01:52:28;;;;;;;6.93;1.50;;;11.60;99.90;;;;;;5098909;28;20039;-63
2022/09/18 01:54:56;;;;;;;5.05;1.23;;;11.60;99.90;;;;;;5093756;28;20491;-68
2022/09/18 01:57:46;;;;;;;5.85;1.67;;;11.60;99.90;;;;;;5091043;28;20497;-63
2022/09/18 02:00:13;;;;;;;7.65;1.50;;;11.60;99.90;;;;;;5060291;28;20586;-63
2022/09/18 02:02:45;;;;;;;5.82;1.30;;;11.60;99.90;;;;;;5076146;28;20036;-65
2022/09/18 02:05:17;;;;;;;6.68;0.90;;;11.60;99.90;;;;;;5085594;28;20051;-63
2022/09/18 02:07:50;;;;;;;;;;;11.60;99.90;;;;;;5078429;28;20490;-64
2022/09/18 02:10:18;;;;;;;5.78;1.25;;;11.60;99.90;;;;;;5078870;28;19923;-63
2022/09/18 02:12:46;;;;;;;5.85;1.08;;;11.60;99.90;;;;;;5074803;28;20044;-63
2022/09/18 02:15:14;;;;;;;6.40;1.35;;;11.60;99.90;;;;;;5083501;28;20039;-63
2022/09/18 02:17:47;;;;;;;4.13;1.00;;;11.70;99.90;;;;;;5108954;28;20390;-64
2022/09/18 02:20:22;;;;;;;4.00;0.95;;;11.50;99.90;;;;;;5076665;28;20115;-66
2022/09/18 02:22:51;;;;;;;6.88;1.25;;;11.60;99.90;;;;;;5071089;28;20123;-64
2022/09/18 02:25:22;;;;;;;5.80;1.10;;;11.60;99.90;;;;;;5082649;28;20044;-64
2022/09/18 02:27:49;;;;;;;3.40;0.85;;;11.60;99.90;;;;;;5100806;28;20143;-63
2022/09/18 02:30:15;;;;;;;5.05;1.17;;;11.60;99.90;;;;;;5079497;28;20044;-67
2022/09/18 02:32:41;;;;;;;8.05;1.25;;;11.60;99.90;;;;;;5087179;28;20494;-63
2022/09/18 02:35:10;;;;;;;7.18;1.23;;;11.70;99.90;;;;;;5086171;28;20150;-63
2022/09/18 02:37:43;;;;;;;5.53;0.98;;;11.60;99.90;;;;;;5091365;28;20173;-66
2022/09/18 02:40:31;;;;;;;3.30;1.10;;;11.60;99.90;;;;;;5073083;28;20104;-63
2022/09/18 02:43:17;;;;;;;3.50;1.08;;;11.60;99.90;;;;;;5102119;28;20042;-63
2022/09/18 02:45:43;;;;;;;7.00;1.20;;;11.60;99.90;;;;;;5103715;28;20039;-63
2022/09/18 02:48:36;;;;;;;6.97;1.08;;;11.60;99.90;;;;;;5081396;28;20395;-64
2022/09/18 02:51:29;;;;;;;8.25;1.45;;;11.60;99.90;;;;;;5074232;28;20093;-64
2022/09/18 02:54:06;;;;;;;6.18;0.95;;;11.60;99.90;;;;;;5067964;28;20044;-64
2022/09/18 02:56:48;;;;;;;4.57;1.05;;;11.50;99.90;;;;;;5095360;28;20060;-63
2022/09/18 02:59:39;;;;;;;5.70;1.13;;;11.50;99.90;;;;;;5096031;28;20123;-63
2022/09/18 03:02:06;;;;;;;6.28;1.00;;;11.60;99.90;;;;;;5077329;28;20680;-63
2022/09/18 03:04:32;;;;;;;4.13;0.80;;;11.50;99.90;;;;;;5073333;28;20052;-65
2022/09/18 03:06:58;;;;;;;5.60;1.20;;;11.50;99.90;;;;;;5099490;28;20387;-67
2022/09/18 03:09:24;;;;;;;4.72;0.93;;;11.50;99.90;;;;;;5093585;28;20247;-63
2022/09/18 03:11:50;;;;;;;3.58;0.90;;;11.50;99.90;;;;;;5078144;28;20055;-63
2022/09/18 03:14:15;;;;;;;6.63;1.15;;;11.50;99.90;;;;;;5072713;28;20261;-63
2022/09/18 03:16:41;;;;;;;6.28;0.95;;;11.50;99.90;;;;;;5087986;28;20032;-63
2022/09/18 03:19:07;;;;;;;3.95;1.00;;;11.50;99.90;;;;;;5101246;28;20078;-64
2022/09/18 03:21:33;;;;;;;4.43;0.93;;;11.50;99.90;;;;;;5093390;28;20110;-66
2022/09/18 03:23:58;;;;;;;4.07;0.90;;;11.50;99.90;;;;;;5099422;27;20047;-63
2022/09/18 03:26:24;;;;;;;4.75;1.10;;;11.60;99.90;;;;;;5099099;28;20036;-63
2022/09/18 03:28:49;;;;;;;2.88;0.82;;;11.50;99.90;;;;;;5089737;28;20470;-63
2022/09/18 03:31:15;;;;;;;7.15;1.23;;;11.60;99.90;;;;;;5078055;28;20094;-63
2022/09/18 03:33:41;;;;;;;2.80;0.75;;;11.50;99.90;;;;;;5108446;28;20040;-65
2022/09/18 03:36:07;;;;;;;4.18;1.05;;;11.50;99.90;;;;;;5076556;28;20055;-63
2022/09/18 03:38:33;;;;;;;3.08;0.90;;;11.50;99.90;;;;;;5084940;28;20115;-63
2022/09/18 03:40:59;;;;;;;6.32;1.00;;;11.50;99.90;;;;;;5105847;28;20047;-63
2022/09/18 03:43:25;;;;;;;5.22;1.02;;;11.50;99.90;;;;;;5091170;28;20032;-64
2022/09/18 03:45:51;;;;;;;6.03;1.08;;;11.60;99.90;;;;;;5085110;28;20040;-63
2022/09/18 03:48:19;;;;;;;7.68;1.10;;;11.50;99.90;;;;;;5087751;28;20490;-63
2022/09/18 03:50:47;;;;;;;6.25;1.35;;;11.50;99.90;;;;;;5081885;28;20046;-64
2022/09/18 03:53:12;;;;;;;7.32;1.17;;;11.50;99.90;;;;;;5098657;28;20028;-63
2022/09/18 03:55:38;;;;;;;5.63;1.15;;;11.50;99.90;;;;;;5087153;28;20145;-63
2022/09/18 03:58:04;;;;;;;6.20;1.20;;;11.50;99.90;;;;;;5072860;28;20036;-64
2022/09/18 04:00:29;;;;;;;5.90;1.58;;;11.50;99.90;;;;;;5076545;28;20024;-67
2022/09/18 04:02:55;;;;;;;6.47;1.10;;;11.50;99.90;;;;;;5087038;28;20034;-63
2022/09/18 04:05:21;;;;;;;5.88;1.40;;;11.50;99.90;;;;;;5095207;28;20024;-63
2022/09/18 04:07:46;;;;;;;8.75;1.17;;;11.50;99.90;;;;;;5090943;28;20044;-63
2022/09/18 04:10:13;;;;;;;4.25;0.98;;;11.50;99.90;;;;;;5090408;28;20028;-64
2022/09/18 04:12:38;;;;;;;6.10;1.00;;;11.50;99.90;;;;;;5102306;28;20444;-65
2022/09/18 04:15:10;;;;;;;6.82;1.48;;;11.50;99.90;;;;;;5094384;28;20077;-64
2022/09/18 04:17:36;;;;;;;7.50;1.33;;;11.40;99.90;;;;;;5082860;28;20042;-64
2022/09/18 04:20:03;;;;;;;5.55;1.17;;;11.50;99.90;;;;;;5093328;28;20031;-64
2022/09/18 04:22:29;;;;;;;4.78;1.20;;;11.50;99.90;;;;;;5072751;28;20052;-65
2022/09/18 04:24:55;;;;;;;5.05;1.20;;;11.50;99.90;;;;;;5075386;28;20036;-65
2022/09/18 04:27:20;;;;;;;5.05;1.17;;;11.40;99.90;;;;;;5096850;28;20486;-65
2022/09/18 04:29:46;;;;;;;8.82;1.20;;;11.50;99.90;;;;;;5090335;28;20044;-65
2022/09/18 04:32:12;;;;;;;5.78;1.02;;;11.40;99.90;;;;;;5090787;28;20040;-64
2022/09/18 04:34:37;;;;;;;5.45;1.20;;;11.50;99.90;;;;;;5077550;28;20035;-65
2022/09/18 04:37:03;;;;;;;4.38;1.20;;;11.50;99.90;;;;;;5088766;28;20405;-64
2022/09/18 04:39:29;;;;;;;5.28;1.00;;;11.50;99.90;;;;;;5075141;28;20039;-65
2022/09/18 04:41:54;;;;;;;6.90;1.27;;;11.50;99.90;;;;;;5095417;28;20028;-65
2022/09/18 04:44:20;;;;;;;8.95;1.38;;;11.50;99.90;;;;;;5090787;28;20123;-64
2022/09/18 04:46:46;;;;;;;5.32;1.13;;;11.50;99.90;;;;;;5096642;28;20035;-65
2022/09/18 04:49:12;;;;;;;8.82;1.17;;;11.50;99.90;;;;;;5074911;28;20389;-64
2022/09/18 04:51:37;;;;;;;5.47;1.30;;;11.50;99.90;;;;;;5077003;28;20044;-65
2022/09/18 04:54:04;;;;;;;4.45;1.00;;;11.50;99.90;;;;;;5071832;28;20444;-64
2022/09/18 04:56:30;;;;;;;4.13;0.95;;;11.50;99.90;;;;;;5085606;28;20067;-64
2022/09/18 04:58:55;;;;;;;6.72;1.08;;;11.50;99.90;;;;;;5072230;28;20200;-64
2022/09/18 05:01:21;;;;;;;5.88;1.00;;;11.50;99.90;;;;;;5067604;28;20031;-64
2022/09/18 05:03:47;;;;;;;6.78;0.90;;;11.50;99.90;;;;;;5088584;28;20040;-64
2022/09/18 05:06:13;;;;;;;5.50;1.35;;;11.50;99.90;;;;;;5100087;28;20044;-64
2022/09/18 05:08:38;;;;;;;5.43;1.10;;;11.50;99.90;;;;;;5096946;28;20118;-64
2022/09/18 05:11:04;;;;;;;8.70;1.05;;;11.50;99.90;;;;;;5071962;28;20055;-64
2022/09/18 05:13:33;;;;;;;5.72;0.90;;;11.50;99.90;;;;;;5084856;28;20066;-64
2022/09/18 05:15:58;;;;;;;5.28;1.13;;;11.50;99.90;;;;;;5096436;28;20039;-64
2022/09/18 05:18:24;;;;;;;5.70;1.00;;;11.50;99.90;;;;;;5096213;28;20043;-64
2022/09/18 05:20:49;;;;;;;4.32;0.90;;;11.50;99.90;;;;;;5109394;28;20493;-64
2022/09/18 05:23:15;;;;;;;3.63;1.40;;;11.50;99.90;;;;;;5100977;28;20378;-64
2022/09/18 05:25:41;;;;;;;3.47;0.98;;;11.50;99.90;;;;;;5075200;28;20474;-64
2022/09/18 05:28:08;;;;;;;7.10;1.10;;;11.50;99.90;;;;;;5089073;28;20036;-64
2022/09/18 05:30:34;;;;;;;4.07;0.88;;;11.50;99.90;;;;;;5097506;28;20394;-64
2022/09/18 05:33:02;;;;;;;5.32;0.90;;;11.50;99.90;;;;;;5088826;28;20044;-64
2022/09/18 05:35:30;;;;;;;3.33;0.80;;;11.40;99.90;;;;;;5097430;28;20078;-64
2022/09/18 05:37:56;;;;;;;7.22;1.00;;;11.50;99.90;;;;;;5093847;28;20105;-64
2022/09/18 05:40:25;;;;;;;6.13;1.17;;;11.50;99.90;;;;;;5096778;28;20490;-64
2022/09/18 05:42:52;;;;;;;6.80;1.13;;;11.50;99.90;;;;;;5068680;28;20529;-64
2022/09/18 05:45:18;;;;;;;4.38;0.95;;;11.50;99.90;;;;;;5086740;28;20036;-64
2022/09/18 05:47:54;;;;;;;5.93;0.98;;;11.50;99.90;;;;;;5075934;28;20039;-64
2022/09/18 05:50:20;;;;;;;6.20;1.00;;;11.50;99.90;;;;;;5102078;28;20032;-64
2022/09/18 05:52:46;;;;;;;2.20;0.80;;;11.40;99.90;;;;;;5108447;28;20118;-64
2022/09/18 05:55:12;;;;;;;4.43;1.00;;;11.50;99.90;;;;;;5103594;28;20063;-64
2022/09/18 05:57:37;;;;;;;3.95;0.90;;;11.50;99.90;;;;;;5093668;28;20040;-64
2022/09/18 06:00:04;;;;;;;5.25;0.98;;;11.50;99.90;;;;;;5096359;28;20031;-64
2022/09/18 06:02:29;;;;;;;2.63;0.70;;;11.50;99.90;;;;;;5072955;28;20123;-64
2022/09/18 06:04:55;;;;;;;5.82;1.17;;;11.50;99.90;;;;;;5097249;28;20182;-64
2022/09/18 06:07:21;;;;;;;4.75;0.90;;;11.60;99.90;;;;;;5098910;28;20028;-64
2022/09/18 06:09:46;;;;;;;1.50;0.80;;;11.50;99.90;;;;;;5094150;28;20126;-64
2022/09/18 06:12:12;;;;;;;8.00;1.00;;;11.50;99.90;;;;;;5076983;28;20482;-64
2022/09/18 06:14:38;;;;;;;2.10;0.63;;;11.60;99.90;;;;;;5081924;28;20043;-64
2022/09/18 06:17:03;;;;;;;5.53;1.00;;;11.60;99.90;;;;;;5124169;27;20498;-64
2022/09/18 06:19:30;;;;;;;2.33;0.82;;;11.60;99.90;;;;;;5104927;28;20095;-64
2022/09/18 06:21:56;;;;;;;5.25;0.90;;;11.60;99.90;;;;;;5073458;28;20079;-64
2022/09/18 06:24:21;;;;;;;3.80;0.80;;;11.50;99.90;;;;;;5058044;28;20079;-64
2022/09/18 06:26:48;;;;;;;5.25;1.00;;;11.60;99.90;;;;;;5092237;28;20542;-64
2022/09/18 06:29:14;;;;;;;3.13;1.05;;;11.60;99.90;;;;;;5096192;28;20039;-64
2022/09/18 06:31:39;;;;;;;6.72;1.02;;;11.60;99.90;;;;;;5088264;28;20448;-64
2022/09/18 06:34:05;;;;;;;3.75;0.80;;;11.70;99.90;;;;;;5073901;28;20138;-64
2022/09/18 06:36:31;;;;;;;4.00;0.90;;;11.60;99.90;;;;;;5087984;28;20465;-64
2022/09/18 06:38:56;;;;;;;4.15;0.82;;;11.70;99.90;;;;;;5100551;28;20518;-64
2022/09/18 06:41:25;;;;;;;3.90;1.02;;;11.60;99.90;;;;;;5071960;28;20028;-64
2022/09/18 06:43:51;;;;;;;4.70;1.00;;;11.60;99.90;;;;;;5075534;28;20039;-64
2022/09/18 06:46:16;;;;;;;6.15;1.08;;;11.60;99.90;;;;;;5070378;28;20044;-64
2022/09/18 06:48:42;;;;;;;4.85;1.00;;;11.70;99.90;;;;;;5089930;28;20036;-64
2022/09/18 06:51:08;;;;;;;5.82;1.15;;;11.70;99.90;;;;;;5072759;28;20427;-64
2022/09/18 06:53:36;;;;;;;3.88;1.45;;;11.70;99.90;;;;;;5084472;28;20490;-64
2022/09/18 06:56:02;;;;;;;5.85;1.15;;;11.80;99.90;;;;;;5087512;28;20110;-64
2022/09/18 06:58:28;;;;;;;3.45;1.13;;;11.70;99.90;;;;;;5099070;28;20032;-64
2022/09/18 07:00:53;;;;;;;6.20;1.30;;;11.70;99.90;;;;;;5072322;28;20414;-64
2022/09/18 07:03:19;;;;;;;6.45;1.20;;;11.70;99.90;;;;;;5092468;28;20462;-64
2022/09/18 07:05:45;;;;;;;4.47;1.20;;;11.70;99.90;;;;;;5073758;28;20127;-64
2022/09/18 07:08:12;;;;;;;6.95;1.05;;;11.80;99.90;;;;;;5073674;28;20516;-64
2022/09/18 07:10:38;;;;;;;6.80;1.17;;;11.80;99.90;;;;;;5100834;28;20055;-64
2022/09/18 07:13:04;;;;;;;3.63;1.02;;;11.90;99.90;;;;;;5076679;28;20071;-64
2022/09/18 07:15:30;;;;;;;4.93;1.15;;;11.80;99.90;;;;;;5072199;28;20455;-64
2022/09/18 07:18:01;;;;;;;5.47;1.10;;;11.80;99.90;;;;;;5079279;28;20040;-64
2022/09/18 07:20:28;;;;;;;2.63;0.98;;;11.90;99.90;;;;;;5096242;27;20313;-64
2022/09/18 07:22:57;;;;;;;4.60;1.20;;;11.80;99.90;;;;;;5073463;28;20051;-64
2022/09/18 07:25:23;;;;;;;6.70;1.20;;;12.00;99.90;;;;;;5075503;28;20035;-64
2022/09/18 07:27:49;;;;;;;7.72;1.30;;;11.90;99.90;;;;;;5063413;28;20059;-64
2022/09/18 07:30:16;;;;;;;4.15;1.10;;;11.90;99.90;;;;;;5069901;28;20492;-64
2022/09/18 07:32:42;;;;;;;4.97;1.23;;;11.90;99.90;;;;;;5085731;28;20102;-64
2022/09/18 07:35:09;;;;;;;6.53;1.50;;;11.90;99.90;;;;;;5066116;28;20043;-64
2022/09/18 07:37:36;;;;;;;6.32;1.45;;;11.90;99.90;;;;;;5089357;28;20038;-64
2022/09/18 07:40:02;;;;;;;7.97;1.27;;;11.90;99.90;;;;;;5062515;28;20043;-64
2022/09/18 07:42:28;;;;;;;5.38;1.00;;;11.90;99.90;;;;;;5068193;28;20036;-64
2022/09/18 07:44:54;;;;;;;6.35;1.10;;;11.90;99.90;;;;;;5080406;28;20036;-64
2022/09/18 07:47:20;;;;;;;6.93;1.10;;;11.90;99.90;;;;;;5073294;28;20089;-64
2022/09/18 07:49:46;;;;;;;6.03;1.20;;;11.90;99.90;;;;;;5068731;28;20047;-64
2022/09/18 07:52:11;;;;;;;4.95;1.23;;;11.90;99.90;;;;;;5106730;28;20556;-64
2022/09/18 07:54:37;;;;;;;4.00;0.95;;;11.90;99.90;;;;;;5084880;28;20048;-64
2022/09/18 07:57:03;;;;;;;6.95;1.13;;;11.90;99.90;;;;;;5071491;28;20067;-66
2022/09/18 07:59:29;;;;;;;3.05;0.95;;;11.90;99.90;;;;;;5075219;28;20486;-64
2022/09/18 08:01:55;;;;;;;5.40;1.20;;;12.00;99.90;;;;;;5091774;28;20525;-64
2022/09/18 08:04:21;;;;;;;8.00;1.70;;;12.00;99.90;;;;;;5093778;28;20042;-64
2022/09/18 08:06:52;;;;;;;5.22;1.00;;;12.00;99.90;;;;;;5091416;28;20044;-64
2022/09/18 08:09:18;;;;;;;4.38;0.93;;;12.00;99.90;;;;;;5089240;28;20042;-64
2022/09/18 08:11:44;;;;;;;4.70;1.05;;;12.00;99.90;;;;;;5096429;28;20036;-64
2022/09/18 08:14:10;;;;;;;4.78;1.42;;;12.00;99.90;;;;;;5095706;28;20363;-64
2022/09/18 08:16:35;;;;;;;4.30;1.00;;;12.00;99.90;;;;;;5105629;28;20081;-64
2022/09/18 08:19:01;;;;;;;5.15;1.15;;;12.00;99.90;;;;;;5095912;28;20489;-64
2022/09/18 08:21:29;;;;;;;6.50;1.00;;;12.00;99.90;;;;;;5103407;28;20093;-64
2022/09/18 08:23:55;;;;;;;4.22;1.00;;;12.00;99.90;;;;;;5059072;28;20044;-64
2022/09/18 08:26:21;;;;;;;3.75;0.95;;;12.00;99.90;;;;;;5081039;28;20052;-64
2022/09/18 08:28:48;;;;;;;4.40;0.93;;;12.00;99.90;;;;;;5090166;28;20039;-64
2022/09/18 08:31:14;;;;;;;2.28;0.90;;;12.00;99.90;;;;;;5090993;28;20497;-64
2022/09/18 08:33:39;;;;;;;2.53;1.00;;;12.00;99.90;;;;;;5107992;28;20036;-64
2022/09/18 08:36:05;;;;;;;1.83;0.77;;;12.10;99.90;;;;;;5087953;28;20035;-64
2022/09/18 08:38:31;;;;;;;4.47;1.02;;;12.10;99.90;;;;;;5082161;28;20434;-64
2022/09/18 08:41:26;;;;;;;5.35;1.20;;;12.10;99.90;;;;;;5079090;28;20486;-64
2022/09/18 08:44:12;;;;;;;6.03;1.20;;;12.10;99.90;;;;;;5052319;28;20387;-64
2022/09/18 08:46:49;;;;;;;5.30;0.93;;;12.10;99.90;;;;;;5093631;28;20315;-64
2022/09/18 08:49:23;;;;;;;4.20;1.30;;;12.10;99.90;;;;;;5075335;28;20104;-64
2022/09/18 08:52:14;;;;;;;2.53;0.85;;;12.10;99.90;;;;;;5058240;28;20036;-64
2022/09/18 08:55:01;;;;;;;4.55;1.00;;;12.10;99.90;;;;;;5078290;28;20115;-64
2022/09/18 08:57:54;;;;;;;4.22;0.60;;;12.10;99.90;;;;;;5065130;28;20119;-64
2022/09/18 09:00:44;;;;;;;3.38;0.80;;;12.10;99.90;;;;;;5068771;28;20506;-64
2022/09/18 09:03:21;;;;;;;1.33;0.70;;;12.10;99.90;;;;;;5084245;28;20039;-64
2022/09/18 09:06:13;;;;;;;1.92;0.75;;;12.00;99.90;;;;;;5072809;28;20105;-64
2022/09/18 09:08:54;;;;;;;5.00;0.90;;;12.00;99.90;;;;;;5078320;28;20444;-64
2022/09/18 09:11:47;;;;;;;4.13;0.80;;;12.00;99.90;;;;;;5090603;28;20049;-64
2022/09/18 09:14:39;;;;;;;1.85;0.60;;;11.90;99.90;;;;;;5063025;28;20068;-64
2022/09/18 09:17:39;;;;;;;1.40;0.60;;;11.90;99.90;;;;;;5078278;28;20036;-64
2022/09/18 09:20:23;;;;;;;2.30;0.60;;;11.90;99.90;;;;;;5014735;28;20052;-64
2022/09/18 09:23:04;;;;;;;5.07;0.80;;;11.90;99.90;;;;;;5082798;28;20498;-64
2022/09/18 09:25:46;;;;;;;1.58;0.70;;;11.90;99.90;;;;;;5089896;28;20038;-64
2022/09/18 09:28:17;;;;;;;;;;;11.90;99.90;;;;;;5077399;28;20454;-64
2022/09/18 09:30:47;;;;;;;3.67;0.65;;;11.90;99.90;;;;;;5088559;28;20275;-64
2022/09/18 09:33:38;;;;;;;3.80;0.70;;;11.90;99.90;;;;;;5087649;28;20431;-64
2022/09/18 09:36:14;;;;;;;1.80;0.60;;;11.90;99.90;;;;;;5097579;28;20486;-64
2022/09/18 09:38:55;;;;;;;1.40;0.70;;;12.00;99.90;;;;;;5064121;28;20586;-64
2022/09/18 09:41:29;;;;;;;2.15;0.70;;;11.90;99.90;;;;;;5092589;28;20309;-64
2022/09/18 09:44:20;;;;;;;3.53;0.95;;;11.90;99.90;;;;;;5076149;28;20044;-64
2022/09/18 09:47:14;;;;;;;3.33;0.80;;;12.00;99.90;;;;;;5083444;28;20055;-64
2022/09/18 09:50:11;;;;;;;2.47;0.80;;;12.00;99.90;;;;;;5067663;28;20050;-64
2022/09/18 09:52:41;;;;;;;2.35;0.68;;;12.00;99.90;;;;;;5077388;28;20105;-64
2022/09/18 09:55:12;;;;;;;5.35;1.00;;;12.00;99.90;;;;;;5077966;28;20039;-64
2022/09/18 09:58:11;;;;;;;2.53;0.90;;;12.00;99.90;;;;;;5067176;28;20513;-64
2022/09/18 10:00:51;;;;;;;3.42;1.30;;;12.00;99.90;;;;;;5071464;28;20094;-64
2022/09/18 10:04:00;;;;;;;2.40;0.70;;;12.00;99.90;;;;;;5098567;28;20493;-64
2022/09/18 10:06:40;;;;;;;1.27;0.52;;;12.00;99.90;;;;;;5094435;28;20036;-64
2022/09/18 10:09:35;;;;;;;5.55;1.00;;;12.00;99.90;;;;;;5081553;28;20032;-64
2022/09/18 10:12:21;;;;;;;2.63;0.98;;;12.10;99.90;;;;;;5097225;22;20056;-80
2022/09/18 10:14:49;;;;;;;5.05;0.98;;;12.10;99.90;;;;;;5031223;28;20060;-79
2022/09/18 10:17:17;;;;;;;5.60;1.10;;;12.00;99.90;;;;;;5032363;28;20040;-77
2022/09/18 10:19:43;;;;;;;2.10;0.82;;;12.00;99.90;;;;;;5034586;28;20067;-79
2022/09/18 10:22:13;;;;;;;3.97;1.00;;;12.30;99.90;;;;;;5027596;28;20120;-77
2022/09/18 10:24:57;;;;;;;4.03;1.10;;;12.10;99.90;;;;;;5032147;28;20048;-79
2022/09/18 10:27:23;;;;;;;4.18;0.88;;;12.20;99.90;;;;;;5036434;28;20049;-78
2022/09/18 10:29:48;;;;;;;3.38;1.00;;;12.20;99.90;;;;;;5029573;28;20032;-81
2022/09/18 10:32:35;;;;;;;5.28;1.38;;;12.20;99.90;;;;;;5032539;28;20523;-82
2022/09/18 10:35:29;;;;;;;6.32;1.20;;;12.20;99.90;;;;;;5031076;28;20045;-82
2022/09/18 10:37:56;;;;;;;4.57;0.85;;;12.20;99.90;;;;;;5029876;28;20045;-80
2022/09/18 10:40:38;;;;;;;5.75;1.10;;;12.30;99.90;;;;;;5027346;28;20045;-78
2022/09/18 10:43:06;;;;;;;7.38;1.17;;;12.30;99.90;;;;;;5025224;28;20051;-78
2022/09/18 10:45:40;;;;;;;4.97;1.00;;;12.20;99.90;;;;;;5028303;28;20123;-80
2022/09/18 10:48:21;;;;;;;4.55;1.00;;;12.30;99.90;;;;;;5030245;28;20037;-80
2022/09/18 10:50:59;;;;;;;6.45;1.10;;;12.30;99.90;;;;;;5032100;28;20124;-81
2022/09/18 10:53:29;;;;;;;5.50;1.30;;;12.30;99.90;;;;;;5013363;28;20163;-79
2022/09/18 10:56:03;;;;;;;3.47;0.80;;;12.40;99.90;;;;;;5020633;28;20637;-81
2022/09/18 10:58:31;;;;;;;4.25;1.20;;;12.30;99.90;;;;;;5030637;28;20045;-76
2022/09/18 11:01:06;;;;;;;5.85;1.17;;;12.30;99.90;;;;;;5031048;28;20398;-81
2022/09/18 11:03:46;;;;;;;4.82;1.00;;;12.40;99.90;;;;;;5026825;28;20055;-79
2022/09/18 11:06:22;;;;;;;4.00;0.82;;;12.50;99.90;;;;;;5023533;28;20108;-79
2022/09/18 11:08:52;;;;;;;4.57;1.10;;;12.40;99.90;;;;;;5036186;28;20045;-80
2022/09/18 11:11:33;;;;;;;4.57;1.10;;;12.40;99.90;;;;;;5030661;28;20062;-79
2022/09/18 11:14:01;;;;;;;4.47;1.30;;;12.30;99.90;;;;;;5029523;28;20083;-80
2022/09/18 11:16:31;;;;;;;5.97;1.40;;;12.30;99.90;;;;;;5048377;28;20044;-80
2022/09/18 11:19:06;;;;;;;3.78;1.00;;;12.40;99.90;;;;;;5036369;28;20508;-80
2022/09/18 11:21:32;;;;;;;6.88;1.50;;;12.40;99.90;;;;;;5013581;28;20079;-81
2022/09/18 11:24:14;;;;;;;5.93;1.08;;;12.40;99.90;;;;;;5013983;28;20033;-81
2022/09/18 11:26:48;;;;;;;3.50;1.10;;;12.40;99.90;;;;;;5035186;28;20332;-80
2022/09/18 11:29:38;;;;;;;4.57;1.50;;;12.40;99.90;;;;;;5034813;28;20128;-80
2022/09/18 11:32:24;;;;;;;7.72;1.25;;;12.40;99.90;;;;;;5030047;28;20041;-81
2022/09/18 11:34:53;;;;;;;7.30;1.05;;;12.40;99.90;;;;;;5030478;28;20045;-81
2022/09/18 11:37:33;;;;;;;3.47;1.10;;;12.50;99.90;;;;;;5012147;28;20044;-81
2022/09/18 11:40:14;;;;;;;7.40;1.10;;;12.40;99.90;;;;;;5023843;28;20662;-81
2022/09/18 11:42:44;;;;;;;4.93;1.02;;;12.40;99.90;;;;;;5018268;28;20057;-81
2022/09/18 11:45:29;;;;;;;4.90;1.20;;;12.50;99.90;;;;;;5029088;28;20132;-81
2022/09/18 11:48:14;;;;;;;3.45;1.00;;;12.40;99.90;;;;;;5028118;28;20401;-80
2022/09/18 11:50:39;;;;;;;6.68;1.00;;;12.50;99.90;;;;;;5017757;28;20085;-80
2022/09/18 11:53:22;;;;;;;3.63;0.82;;;12.50;99.90;;;;;;5031502;28;20034;-81
2022/09/18 11:55:56;;;;;;;5.40;1.20;;;12.60;99.90;;;;;;5017479;28;20497;-81
2022/09/18 11:58:44;;;;;;;4.72;1.10;;;12.60;99.90;;;;;;5043876;28;20500;-80
2022/09/18 12:01:18;;;;;;;6.72;1.30;;;12.60;99.90;;;;;;5028501;28;20131;-81
2022/09/18 12:04:05;;;;;;;4.85;0.95;;;12.60;99.90;;;;;;5032119;28;20439;-81
2022/09/18 12:07:12;;;;;;;5.18;1.15;;;12.70;99.90;;;;;;5031376;28;20040;-81
2022/09/18 12:09:57;;;;;;;8.23;1.60;;;12.70;99.90;;;;;;5032178;28;20025;-81
2022/09/18 12:12:31;;;;;;;2.97;0.95;;;12.70;99.90;;;;;;5024741;28;20029;-81
2022/09/18 12:15:03;;;;;;;6.78;1.30;;;12.80;99.90;;;;;;5032673;28;20083;-81
2022/09/18 12:17:41;;;;;;;5.38;1.00;;;12.80;99.90;;;;;;5034548;28;20037;-80
2022/09/18 12:20:39;;;;;;;5.07;0.93;;;12.90;99.90;;;;;;5035881;28;20051;-80
2022/09/18 12:23:05;;;;;;;5.05;0.90;;;12.90;99.90;;;;;;5025186;28;20029;-80
2022/09/18 12:25:54;;;;;;;6.13;1.10;;;12.90;99.90;;;;;;5030625;28;20519;-81
2022/09/18 12:28:36;;;;;;;4.45;1.20;;;13.00;99.90;;;;;;5013080;28;20401;-80
2022/09/18 12:31:14;;;;;;;8.53;1.07;;;13.00;99.90;;;;;;5030392;28;20079;-78
2022/09/18 12:34:15;;;;;;;6.97;1.80;;;13.00;99.90;;;;;;5007385;28;20132;-80
2022/09/18 12:37:02;;;;;;;5.18;1.45;;;13.10;99.90;;;;;;5026122;28;20044;-78
2022/09/18 12:39:28;;;;;;;3.53;1.10;;;13.10;99.90;;;;;;5007095;28;20512;-80
2022/09/18 12:42:17;;;;;;;8.02;1.63;;;13.10;99.90;;;;;;5015736;28;20048;-78
2022/09/18 12:45:12;;;;;;;6.47;1.38;;;13.10;99.90;;;;;;5029720;28;20187;-78
2022/09/18 12:47:46;;;;;;;4.47;1.20;;;13.00;99.90;;;;;;5012154;28;20549;-79
2022/09/18 12:50:11;;;;;;;7.32;1.58;;;13.00;99.90;;;;;;5028093;28;20101;-79
2022/09/18 12:52:58;;;;;;;7.43;1.50;;;12.90;99.90;;;;;;5008286;28;20123;-79
2022/09/18 12:55:54;;;;;;;4.88;1.20;;;12.80;99.90;;;;;;5026756;28;20496;-79
2022/09/18 12:58:51;;;;;;;8.40;1.20;;;12.70;99.90;;;;;;5024241;28;20045;-79
2022/09/18 13:01:44;;;;;;;4.63;1.08;;;12.70;99.90;;;;;;5022009;28;20121;-80
2022/09/18 13:04:17;;;;;;;7.38;1.40;;;12.70;99.90;;;;;;5024042;28;20044;-79
2022/09/18 13:07:07;;;;;;;4.50;1.00;;;12.70;99.90;;;;;;5029786;28;20040;-79
2022/09/18 13:09:50;;;;;;;6.38;1.20;;;12.70;99.90;;;;;;5004646;28;20053;-79
2022/09/18 13:12:37;;;;;;;6.40;1.08;;;12.70;99.90;;;;;;5026223;28;20040;-79
2022/09/18 13:15:36;;;;;;;26.42;2.35;;;12.80;99.90;;;;;;5015179;28;20050;-79
2022/09/18 13:18:28;;;;;;;7.80;1.50;;;12.90;99.90;;;;;;4994628;28;20049;-79